Time;durP1;ratioP1;P1;durP2;ratioP2;P2;SDS_P1;SDS_P2;PMS_P1;PMS_P2;Temp;Humidity;BMP_temperature;BMP_pressure;BME280_temperature;BME280_humidity;BME280_pressure;Samples;Min_cycle;Max_cycle;Signal;HPM_P1;HPM_P2
2022/07/10 00:00:41;;;;;;;5.67;2.97;;;;;;;19.64;58.32;98485.63;8412407;28;20231;-74
2022/07/10 00:04:43;;;;;;;4.27;3.63;;;;;;;19.60;58.46;98487.66;8413174;28;20536;-75
2022/07/10 00:08:48;;;;;;;6.67;3.73;;;;;;;19.59;58.10;98493.00;8412609;28;20269;-75
2022/07/10 00:12:52;;;;;;;3.73;3.30;;;;;;;19.56;58.52;98488.81;8412973;28;20251;-74
2022/07/10 00:16:54;;;;;;;5.73;3.33;;;;;;;19.55;58.43;98484.50;8412782;28;20235;-75
2022/07/10 00:20:57;;;;;;;5.63;3.37;;;;;;;19.43;58.46;98480.16;8412611;28;20232;-75
2022/07/10 00:25:01;;;;;;;4.33;3.13;;;;;;;19.43;58.45;98472.28;8412704;28;20233;-75
2022/07/10 00:29:04;;;;;;;4.60;3.13;;;;;;;19.43;58.52;98480.16;8412459;28;20237;-75
2022/07/10 00:33:07;;;;;;;4.00;3.27;;;;;;;19.32;58.64;98471.28;8412277;28;20573;-75
2022/07/10 00:37:10;;;;;;;3.50;3.20;;;;;;;19.32;58.66;98467.78;8412291;28;20235;-75
2022/07/10 00:41:15;;;;;;;4.43;3.30;;;;;;;19.28;58.83;98472.44;8412227;28;20226;-75
2022/07/10 00:45:18;;;;;;;5.40;3.17;;;;;;;19.25;58.83;98477.09;8412347;28;20341;-75
2022/07/10 00:49:21;;;;;;;4.40;3.20;;;;;;;19.26;58.58;98478.75;8417754;28;20624;-75
2022/07/10 00:53:23;;;;;;;3.43;3.13;;;;;;;19.23;58.32;98479.81;8417476;28;20223;-74
2022/07/10 00:57:27;;;;;;;6.47;3.00;;;;;;;19.20;58.40;98484.44;8417741;28;20231;-74
2022/07/10 01:01:30;;;;;;;4.93;3.10;;;;;;;19.12;58.61;98488.44;8417374;28;20234;-75
2022/07/10 01:05:33;;;;;;;7.43;3.13;;;;;;;19.16;58.47;98485.63;8417572;28;20239;-74
2022/07/10 01:09:36;;;;;;;4.57;3.17;;;;;;;19.11;58.70;98488.56;8417372;28;20261;-74
2022/07/10 01:13:41;;;;;;;3.20;2.90;;;;;;;19.12;58.13;98492.88;8417515;28;20224;-75
2022/07/10 01:17:43;;;;;;;5.87;3.13;;;;;;;19.03;58.52;98483.03;8417232;28;20235;-76
2022/07/10 01:21:48;;;;;;;6.03;2.87;;;;;;;19.01;58.39;98480.50;8417403;28;20417;-76
2022/07/10 01:25:51;;;;;;;5.33;3.07;;;;;;;18.95;58.68;98476.53;8417177;28;20222;-76
2022/07/10 01:29:54;;;;;;;4.10;2.50;;;;;;;19.00;58.62;98475.34;8416845;28;20230;-75
2022/07/10 01:33:57;;;;;;;5.10;2.90;;;;;;;18.95;58.69;98471.28;8416887;28;20238;-76
2022/07/10 01:38:01;;;;;;;6.70;2.70;;;;;;;19.00;58.48;98470.09;8416648;28;20243;-75
2022/07/10 01:42:05;;;;;;;4.90;2.73;;;;;;;18.95;58.50;98467.81;8416618;28;20234;-75
2022/07/10 01:46:08;;;;;;;3.77;2.57;;;;;;;18.95;57.94;98475.69;8416285;28;20228;-76
2022/07/10 01:50:11;;;;;;;3.57;2.50;;;;;;;18.97;57.97;98479.03;8416058;28;20233;-75
2022/07/10 01:54:15;;;;;;;5.43;2.60;;;;;;;18.94;58.00;98482.72;8416075;28;20233;-75
2022/07/10 01:58:18;;;;;;;4.77;2.43;;;;;;;18.93;57.71;98485.47;8415268;28;20231;-75
2022/07/10 02:02:21;;;;;;;4.67;2.90;;;;;;;18.87;57.45;98493.75;8415839;28;20227;-75
2022/07/10 02:06:24;;;;;;;4.40;2.50;;;;;;;18.80;57.51;98495.09;8415327;28;20338;-75
2022/07/10 02:10:28;;;;;;;5.87;2.40;;;;;;;18.83;57.05;98493.13;8415228;28;20238;-76
2022/07/10 02:14:31;;;;;;;5.23;2.20;;;;;;;18.78;57.02;98494.38;8415463;28;20246;-75
2022/07/10 02:18:35;;;;;;;5.07;2.60;;;;;;;18.80;56.79;98500.34;8415211;28;20234;-75
2022/07/10 02:22:38;;;;;;;4.23;2.00;;;;;;;18.70;56.93;98500.16;8415190;28;20235;-76
2022/07/10 02:26:42;;;;;;;5.33;2.10;;;;;;;18.77;56.67;98488.25;8415235;28;20238;-75
2022/07/10 02:30:45;;;;;;;4.57;2.03;;;;;;;18.74;56.40;98506.84;8414832;28;20267;-75
2022/07/10 02:34:48;;;;;;;6.53;2.00;;;;;;;18.68;56.49;98504.66;8414861;28;20298;-75
2022/07/10 02:38:50;;;;;;;8.53;2.13;;;;;;;18.61;55.53;98512.09;8414617;28;20222;-75
2022/07/10 02:42:55;;;;;;;4.47;1.77;;;;;;;18.59;54.66;98507.91;8414667;28;20223;-75
2022/07/10 02:46:57;;;;;;;6.00;1.90;;;;;;;18.28;54.45;98507.38;8414499;28;20227;-75
2022/07/10 02:51:00;;;;;;;5.43;2.00;;;;;;;18.06;54.31;98510.59;8414362;28;20517;-76
2022/07/10 02:55:03;;;;;;;6.20;1.67;;;;;;;18.25;53.83;98513.66;8414333;28;20261;-75
2022/07/10 02:59:07;;;;;;;4.33;1.60;;;;;;;18.33;53.42;98505.28;8414277;28;20238;-75
2022/07/10 03:03:10;;;;;;;5.23;1.60;;;;;;;18.28;52.91;98502.16;8413862;28;20228;-76
2022/07/10 03:07:13;;;;;;;4.80;1.57;;;;;;;18.22;52.74;98498.16;8413987;28;20233;-76
2022/07/10 03:11:16;;;;;;;3.57;1.73;;;;;;;18.36;52.26;98502.44;8412772;28;20429;-75
2022/07/10 03:15:20;;;;;;;4.37;1.67;;;;;;;18.32;52.29;98504.44;8413742;28;20253;-76
2022/07/10 03:19:23;;;;;;;5.70;1.60;;;;;;;18.20;52.15;98510.53;8413123;28;20219;-75
2022/07/10 03:23:26;;;;;;;4.83;1.37;;;;;;;18.09;51.80;98513.03;8413537;28;20218;-75
2022/07/10 03:27:29;;;;;;;5.20;1.50;;;;;;;18.05;51.99;98515.00;8413602;28;20587;-75
2022/07/10 03:31:33;;;;;;;5.87;1.37;;;;;;;18.23;51.88;98518.16;8413379;28;20258;-76
2022/07/10 03:35:36;;;;;;;4.17;1.47;;;;;;;18.19;51.85;98526.34;8413631;28;20447;-75
2022/07/10 03:39:39;;;;;;;4.70;1.30;;;;;;;18.20;51.69;98518.38;8413534;28;20235;-75
2022/07/10 03:43:42;;;;;;;5.37;1.50;;;;;;;18.20;51.25;98517.53;8413577;28;20243;-75
2022/07/10 03:47:46;;;;;;;6.33;1.40;;;;;;;17.84;51.27;98516.34;8413155;28;20237;-76
2022/07/10 03:51:48;;;;;;;7.63;1.50;;;;;;;18.02;50.39;98517.81;8413178;28;20233;-75
2022/07/10 03:55:51;;;;;;;3.40;1.40;;;;;;;18.13;50.30;98515.31;8413336;28;20429;-76
2022/07/10 03:59:53;;;;;;;4.10;1.40;;;;;;;18.15;50.29;98512.59;8413282;28;20234;-76
2022/07/10 04:03:57;;;;;;;4.57;1.20;;;;;;;18.07;50.49;98515.72;8412700;28;20243;-75
2022/07/10 04:08:01;;;;;;;6.03;1.67;;;;;;;18.21;50.15;98513.97;8412564;28;20258;-76
2022/07/10 04:12:04;;;;;;;4.60;1.40;;;;;;;18.26;49.94;98525.84;8412810;28;20230;-75
2022/07/10 04:16:10;;;;;;;5.73;1.47;;;;;;;18.24;50.58;98522.47;8412822;28;20538;-75
2022/07/10 04:20:15;;;;;;;7.13;1.50;;;;;;;18.26;50.66;98519.72;8412822;28;20234;-75
2022/07/10 04:24:17;;;;;;;4.87;1.33;;;;;;;18.24;50.72;98526.84;8418933;28;20415;-75
2022/07/10 04:28:20;;;;;;;5.13;1.40;;;;;;;18.23;51.25;98512.91;8418609;28;20418;-76
2022/07/10 04:32:23;;;;;;;5.10;1.30;;;;;;;18.17;51.52;98527.28;8418250;28;20232;-75
2022/07/10 04:36:27;;;;;;;5.03;1.53;;;;;;;18.07;50.42;98535.88;8418397;28;20227;-75
2022/07/10 04:40:30;;;;;;;5.80;1.57;;;;;;;18.04;49.29;98536.88;8418274;28;20242;-76
2022/07/10 04:44:33;;;;;;;4.53;1.40;;;;;;;17.94;49.21;98533.22;8418359;28;20263;-75
2022/07/10 04:48:36;;;;;;;5.47;1.50;;;;;;;18.07;48.41;98528.00;8417895;28;20230;-76
2022/07/10 04:52:40;;;;;;;4.27;1.30;;;;;;;18.11;47.69;98539.97;8417930;28;20236;-75
2022/07/10 04:56:43;;;;;;;6.13;1.37;;;;;;;17.99;47.48;98541.59;8417995;28;20226;-75
2022/07/10 05:00:46;;;;;;;5.23;1.30;;;;;;;18.06;46.07;98550.72;8417733;28;20238;-75
2022/07/10 05:04:49;;;;;;;5.00;1.30;;;;;;;17.96;45.17;98550.50;8417939;28;20423;-76
2022/07/10 05:08:54;;;;;;;5.20;1.50;;;;;;;17.84;45.34;98542.56;8417334;28;20246;-75
2022/07/10 05:12:57;;;;;;;4.53;1.20;;;;;;;18.06;45.16;98548.13;8417485;28;20223;-75
2022/07/10 05:17:00;;;;;;;4.37;1.20;;;;;;;18.13;44.49;98544.16;8417453;28;20234;-75
2022/07/10 05:21:03;;;;;;;4.53;1.40;;;;;;;18.02;44.98;98549.25;8417109;28;20231;-75
2022/07/10 05:25:08;;;;;;;5.00;1.20;;;;;;;18.14;45.26;98540.59;8417189;28;20231;-76
2022/07/10 05:29:11;;;;;;;2.63;1.10;;;;;;;18.21;44.43;98538.41;8394952;28;20239;-75
2022/07/10 05:33:13;;;;;;;3.43;1.00;;;;;;;18.15;44.13;98546.69;8382726;28;20234;-76
2022/07/10 05:37:16;;;;;;;3.47;1.00;;;;;;;18.01;44.72;98554.59;8386601;28;20228;-76
2022/07/10 05:41:20;;;;;;;4.67;1.40;;;;;;;17.84;44.79;98556.56;8383340;28;20235;-75
2022/07/10 05:45:23;;;;;;;8.73;1.60;;;;;;;17.89;44.75;98562.31;8382912;28;20227;-75
2022/07/10 05:49:26;;;;;;;3.77;1.20;;;;;;;17.94;44.93;98567.28;8383077;28;20246;-75
2022/07/10 05:53:29;;;;;;;3.40;1.03;;;;;;;18.14;44.35;98576.44;8382773;28;20227;-75
2022/07/10 05:57:33;;;;;;;5.47;1.43;;;;;;;18.05;44.86;98569.16;8382825;28;20234;-76
2022/07/10 06:01:36;;;;;;;4.33;1.47;;;;;;;18.53;44.44;98572.94;8392338;28;20230;-76
2022/07/10 06:05:39;;;;;;;5.47;1.27;;;;;;;18.55;44.38;98565.00;8415689;28;20231;-75
2022/07/10 06:09:42;;;;;;;4.23;1.37;;;;;;;18.03;44.88;98565.81;8415143;28;20246;-75
2022/07/10 06:13:46;;;;;;;4.10;1.13;;;;;;;18.33;44.38;98576.06;8415591;28;20237;-76
2022/07/10 06:17:49;;;;;;;3.87;1.27;;;;;;;18.62;44.04;98562.78;8415492;28;20222;-76
2022/07/10 06:22:30;;;;;;;5.20;1.50;;;;;;;18.67;44.12;98563.31;8415176;28;20250;-76
2022/07/10 06:26:14;;;;;;;3.37;1.10;;;;;;;18.73;44.49;98573.38;8414963;28;20415;-76
2022/07/10 06:30:18;;;;;;;3.83;1.20;;;;;;;19.11;42.84;98577.81;8407620;28;20231;-76
2022/07/10 06:34:21;;;;;;;4.63;1.00;;;;;;;18.83;42.34;98573.63;8387124;28;20421;-75
2022/07/10 06:38:24;;;;;;;4.43;1.23;;;;;;;18.59;41.31;98573.50;8391807;28;20230;-75
2022/07/10 06:42:27;;;;;;;5.30;1.03;;;;;;;18.20;41.39;98578.69;8414380;28;20536;-75
2022/07/10 06:46:31;;;;;;;3.37;0.90;;;;;;;18.87;40.27;98575.94;8402564;28;20235;-76
2022/07/10 06:50:34;;;;;;;3.93;1.17;;;;;;;19.04;41.10;98577.41;8396923;28;20236;-75
2022/07/10 06:54:37;;;;;;;2.77;0.87;;;;;;;19.33;40.14;98577.97;8408321;28;20293;-75
2022/07/10 06:58:40;;;;;;;4.03;1.00;;;;;;;19.30;39.50;98570.31;8414231;28;20233;-76
2022/07/10 07:02:45;;;;;;;2.67;1.00;;;;;;;19.52;39.08;98574.06;8413811;28;20223;-75
2022/07/10 07:06:48;;;;;;;2.20;0.80;;;;;;;19.60;37.79;98569.09;8413640;28;20229;-79
2022/07/10 07:10:51;;;;;;;3.70;1.10;;;;;;;19.76;38.45;98568.00;8407878;28;20228;-75
2022/07/10 07:14:53;;;;;;;3.27;0.97;;;;;;;19.86;37.36;98571.66;8393727;28;20227;-75
2022/07/10 07:18:58;;;;;;;2.23;0.90;;;;;;;20.45;37.91;98570.81;8387719;28;20229;-76
2022/07/10 07:23:12;;;;;;;5.20;0.90;;;;;;;19.85;36.04;98576.06;8385251;28;20345;-77
2022/07/10 07:27:15;;;;;;;4.63;0.90;;;;;;;20.20;35.84;98572.66;8407861;28;20293;-77
2022/07/10 07:31:18;;;;;;;5.37;1.00;;;;;;;20.29;36.70;98584.25;8390037;28;20237;-79
2022/07/10 07:35:23;;;;;;;4.57;0.90;;;;;;;19.74;36.34;98586.50;8380154;28;20232;-76
2022/07/10 07:39:26;;;;;;;4.93;0.90;;;;;;;19.74;36.76;98576.00;8379582;28;20514;-77
2022/07/10 07:43:29;;;;;;;2.87;0.90;;;;;;;19.83;37.60;98590.28;8379893;28;20227;-76
2022/07/10 07:47:32;;;;;;;2.63;0.67;;;;;;;19.61;37.19;98596.19;8379862;28;20228;-77
2022/07/10 07:51:36;;;;;;;6.33;0.97;;;;;;;19.32;37.22;98605.22;8379867;28;20243;-76
2022/07/10 07:55:39;;;;;;;3.40;0.93;;;;;;;19.19;37.71;98598.28;8380638;28;20230;-78
2022/07/10 07:59:42;;;;;;;3.30;0.80;;;;;;;19.50;38.25;98603.06;8386572;28;20247;-79
2022/07/10 08:03:45;;;;;;;2.53;0.60;;;;;;;18.94;36.49;98597.34;8400393;28;20233;-80
2022/07/10 08:08:09;;;;;;;2.33;0.70;;;;;;;19.43;36.50;98591.28;8401771;28;20227;-79
2022/07/10 08:12:13;;;;;;;2.30;0.60;;;;;;;19.24;36.62;98602.25;8415551;28;20231;-80
2022/07/10 08:16:16;;;;;;;1.83;0.70;;;;;;;19.64;36.58;98595.97;8419539;28;20229;-80
2022/07/10 08:20:18;;;;;;;3.03;1.00;;;;;;;19.40;36.82;98596.78;8395825;28;20240;-80
2022/07/10 08:24:22;;;;;;;17.87;1.03;;;;;;;19.69;36.30;98599.94;8385640;28;20577;-81
2022/07/10 08:28:25;;;;;;;4.87;0.80;;;;;;;20.34;36.41;98592.66;8385162;28;20219;-80
2022/07/10 08:32:28;;;;;;;1.97;0.83;;;;;;;20.31;36.06;98584.97;8385241;28;20292;-80
2022/07/10 08:36:32;;;;;;;1.40;0.60;;;;;;;20.50;35.38;98585.28;8385788;28;20233;-80
2022/07/10 08:40:47;;;;;;;4.30;0.80;;;;;;;20.29;35.54;98584.25;8385373;28;20430;-79
2022/07/10 08:44:50;;;;;;;2.20;0.77;;;;;;;20.40;36.21;98583.47;8385369;28;20224;-79
2022/07/10 08:48:54;;;;;;;2.50;0.60;;;;;;;20.74;36.34;98581.78;8385170;28;20231;-80
2022/07/10 08:53:02;;;;;;;3.33;1.00;;;;;;;20.43;35.55;98589.34;8384810;28;20227;-77
2022/07/10 08:57:06;;;;;;;4.30;1.07;;;;;;;20.41;36.06;98595.66;8384549;28;20231;-77
2022/07/10 09:01:09;;;;;;;2.73;0.90;;;;;;;20.34;36.37;98599.72;8390511;28;20237;-78
2022/07/10 09:05:12;;;;;;;2.77;0.87;;;;;;;20.76;36.33;98592.19;8418029;28;20249;-76
2022/07/10 09:09:15;;;;;;;2.50;0.70;;;;;;;20.60;35.33;98587.25;8417205;28;20235;-80
2022/07/10 09:13:19;;;;;;;3.37;0.90;;;;;;;20.55;36.23;98590.19;8417498;28;20230;-78
2022/07/10 09:17:23;;;;;;;2.07;0.90;;;;;;;20.66;35.68;98592.06;8416829;28;20229;-76
2022/07/10 09:21:25;;;;;;;2.63;0.80;;;;;;;21.29;35.55;98592.47;8417361;28;20234;-76
2022/07/10 09:25:34;;;;;;;3.27;0.90;;;;;;;21.26;35.41;98590.06;8416901;28;20575;-78
2022/07/10 09:29:47;;;;;;;1.90;0.70;;;;;;;21.23;34.72;98591.16;8417109;28;20544;-77
2022/07/10 09:33:50;;;;;;;4.03;0.73;;;;;;;22.36;34.01;98588.28;8416923;28;20229;-78
2022/07/10 09:37:53;;;;;;;2.40;0.70;;;;;;;21.76;35.36;98593.16;8416810;28;20233;-77
2022/07/10 09:41:56;;;;;;;2.60;0.80;;;;;;;21.17;35.40;98593.41;8416742;28;20441;-78
2022/07/10 09:46:00;;;;;;;3.80;1.07;;;;;;;20.94;36.25;98598.66;8416709;28;20227;-78
2022/07/10 09:50:03;;;;;;;2.73;0.97;;;;;;;20.93;36.51;98598.81;8416379;28;20230;-78
2022/07/10 09:54:08;;;;;;;3.00;0.80;;;;;;;20.83;36.71;98594.25;8416159;28;20230;-79
2022/07/10 09:58:10;;;;;;;3.00;1.00;;;;;;;20.87;35.34;98592.22;8416067;28;20227;-78
2022/07/10 10:02:17;;;;;;;3.20;1.20;;;;;;;21.38;35.88;98599.66;8415995;28;20237;-78
2022/07/10 10:06:21;;;;;;;3.27;1.10;;;;;;;21.27;35.94;98604.91;8415967;28;20230;-78
2022/07/10 10:10:25;;;;;;;4.40;0.83;;;;;;;21.37;35.49;98605.03;8415046;28;20229;-78
2022/07/10 10:14:28;;;;;;;3.40;0.90;;;;;;;21.59;36.23;98596.28;8415317;28;20224;-78
2022/07/10 10:18:33;;;;;;;3.13;0.93;;;;;;;22.50;34.50;98597.66;8414829;28;20245;-78
2022/07/10 10:22:37;;;;;;;2.23;1.00;;;;;;;23.21;34.32;98594.38;8415217;28;20288;-78
2022/07/10 10:26:40;;;;;;;3.40;1.10;;;;;;;23.84;32.82;98583.56;8415215;28;20537;-78
2022/07/10 10:30:44;;;;;;;3.90;1.30;;;;;;;24.05;30.47;98579.97;8414869;28;20225;-78
2022/07/10 10:34:55;;;;;;;2.73;0.97;;;;;;;23.80;30.56;98582.19;8414716;28;20234;-77
2022/07/10 10:39:03;;;;;;;6.40;1.07;;;;;;;23.19;31.96;98589.22;8414847;28;20231;-77
2022/07/10 10:43:20;;;;;;;11.93;1.70;;;;;;;23.32;38.12;98586.34;8414692;28;20429;-79
2022/07/10 10:47:24;;;;;;;6.53;1.83;;;;;;;22.99;38.51;98585.59;8414167;28;20403;-78
2022/07/10 10:51:58;;;;;;;3.53;1.30;;;;;;;22.59;38.37;98596.91;8414374;28;20410;-78
2022/07/10 10:56:23;;;;;;;4.90;1.40;;;;;;;22.32;36.74;98586.03;8414235;28;20525;-78
2022/07/10 11:00:40;;;;;;;4.00;1.17;;;;;;;22.51;35.44;98591.44;8407520;28;20226;-78
2022/07/10 11:04:43;;;;;;;4.03;1.10;;;;;;;22.67;35.67;98595.44;8414025;28;20235;-77
2022/07/10 11:08:50;;;;;;;3.93;1.30;;;;;;;22.71;35.23;98587.09;8414095;28;20523;-78
2022/07/10 11:13:00;;;;;;;2.73;0.97;;;;;;;22.84;34.95;98595.66;8413801;28;20234;-79
2022/07/10 11:17:03;;;;;;;2.47;0.77;;;;;;;23.23;33.57;98589.78;8414085;28;20227;-79
2022/07/10 11:21:08;;;;;;;2.77;1.00;;;;;;;23.18;34.47;98584.88;8413991;28;20240;-79
2022/07/10 11:25:27;;;;;;;3.47;1.17;;;;;;;22.99;34.22;98595.34;8413740;28;20222;-79
2022/07/10 11:29:37;;;;;;;2.83;1.00;;;;;;;22.95;35.13;98588.66;8413035;28;20423;-78
2022/07/10 11:33:41;;;;;;;4.00;0.83;;;;;;;22.73;34.97;98589.63;8412925;28;20242;-78
2022/07/10 11:37:51;;;;;;;3.97;0.70;;;;;;;22.79;34.37;98589.97;8413673;28;20231;-79
2022/07/10 11:41:55;;;;;;;2.87;0.97;;;;;;;22.92;35.10;98592.38;8413649;28;20246;-79
2022/07/10 11:46:00;;;;;;;1.80;0.70;;;;;;;22.97;34.16;98586.72;8413174;28;20230;-79
2022/07/10 11:50:04;;;;;;;2.80;0.90;;;;;;;23.11;35.07;98582.91;8413545;28;20632;-79
2022/07/10 11:54:09;;;;;;;5.87;1.70;;;;;;;23.20;34.58;98582.13;8412247;28;20230;-80
2022/07/10 11:58:17;;;;;;;5.43;1.27;;;;;;;22.94;35.15;98579.91;8413388;28;20227;-80
2022/07/10 12:02:23;;;;;;;9.83;1.20;;;;;;;23.00;35.42;98575.91;8413007;28;20254;-80
2022/07/10 12:06:26;;;;;;;2.80;1.00;;;;;;;22.94;34.83;98586.97;8410850;28;20329;-79
2022/07/10 12:10:30;;;;;;;4.57;1.23;;;;;;;23.12;34.09;98574.84;8406418;28;20234;-79
2022/07/10 12:14:35;;;;;;;6.13;1.17;;;;;;;23.42;33.44;98574.00;8413259;28;20514;-79
2022/07/10 12:18:40;;;;;;;3.93;1.00;;;;;;;23.47;32.09;98576.22;8413164;28;20423;-77
2022/07/10 12:22:44;;;;;;;3.63;0.73;;;;;;;23.49;32.32;98576.91;8412863;28;20238;-79
2022/07/10 12:26:47;;;;;;;5.10;0.70;;;;;;;23.55;32.84;98570.25;8412955;28;20584;-79
2022/07/10 12:30:53;;;;;;;2.43;0.90;;;;;;;24.27;29.40;98573.56;8412912;28;20233;-76
2022/07/10 12:34:59;;;;;;;3.43;0.80;;;;;;;24.22;30.69;98576.63;8412864;28;20242;-79
2022/07/10 12:39:02;;;;;;;2.00;0.80;;;;;;;24.67;30.33;98570.72;8412771;28;20547;-79
2022/07/10 12:43:06;;;;;;;3.57;1.00;;;;;;;24.95;29.89;98563.69;8415525;28;20228;-80
2022/07/10 12:47:12;;;;;;;1.63;0.70;;;;;;;25.09;29.44;98567.69;8418290;28;20291;-80
2022/07/10 12:51:23;;;;;;;2.10;0.83;;;;;;;24.86;30.07;98558.44;8418493;28;20236;-80
2022/07/10 12:55:37;;;;;;;2.80;0.90;;;;;;;24.50;31.15;98574.09;8418029;28;20220;-80
2022/07/10 12:59:41;;;;;;;2.67;0.73;;;;;;;24.28;30.44;98570.78;8418278;28;20538;-80
2022/07/10 13:03:46;;;;;;;1.97;0.67;;;;;;;24.21;30.94;98574.94;8417867;28;20286;-80
2022/07/10 13:07:49;;;;;;;1.70;0.70;;;;;;;23.89;30.86;98581.34;8417701;28;20232;-79
2022/07/10 13:11:52;;;;;;;4.93;0.80;;;;;;;24.15;31.56;98572.88;8417536;28;20242;-80
2022/07/10 13:15:56;;;;;;;2.60;0.87;;;;;;;23.96;31.48;98571.06;8417665;28;20232;-80
2022/07/10 13:20:01;;;;;;;1.83;0.70;;;;;;;23.81;31.64;98576.72;8417493;28;20231;-80
2022/07/10 13:24:04;;;;;;;2.83;0.83;;;;;;;23.95;31.36;98583.44;8417722;28;20249;-80
2022/07/10 13:28:08;;;;;;;2.07;0.90;;;;;;;24.24;30.50;98569.38;8417171;28;20230;-80
2022/07/10 13:32:10;;;;;;;2.83;1.03;;;;;;;23.65;29.90;98580.88;8417099;28;20242;-80
2022/07/10 13:36:15;;;;;;;2.33;0.87;;;;;;;23.75;31.82;98571.13;8417110;28;20419;-80
2022/07/10 13:40:18;;;;;;;1.97;0.70;;;;;;;23.88;31.60;98571.75;8416891;28;20451;-80
2022/07/10 13:44:21;;;;;;;3.30;0.80;;;;;;;23.46;31.96;98566.63;8416767;28;20233;-79
2022/07/10 13:48:24;;;;;;;4.47;1.10;;;;;;;23.17;31.60;98571.81;8415991;28;20242;-79
2022/07/10 13:52:28;;;;;;;4.40;0.83;;;;;;;23.11;31.62;98567.88;8416327;28;20257;-79
2022/07/10 13:56:32;;;;;;;3.07;0.80;;;;;;;23.38;31.78;98562.03;8414334;28;20251;-79
2022/07/10 14:00:35;;;;;;;3.37;1.00;;;;;;;23.57;31.37;98560.38;8384567;28;20233;-80
2022/07/10 14:04:38;;;;;;;1.70;0.73;;;;;;;23.19;32.04;98570.72;8416154;28;20261;-79
2022/07/10 14:08:42;;;;;;;6.57;0.83;;;;;;;23.76;32.09;98563.06;8415959;28;20235;-80
2022/07/10 14:12:47;;;;;;;1.63;0.77;;;;;;;24.10;31.85;98556.56;8415605;28;20529;-80
2022/07/10 14:16:51;;;;;;;2.07;0.70;;;;;;;24.05;30.72;98562.28;8415505;28;20222;-79
2022/07/10 14:21:03;;;;;;;2.63;1.03;;;;;;;23.83;32.04;98565.19;8415692;28;20545;-79
2022/07/10 14:25:09;;;;;;;4.33;0.90;;;;;;;23.74;32.18;98567.66;8415565;28;20417;-80
2022/07/10 14:29:11;;;;;;;3.87;0.93;;;;;;;23.66;32.39;98564.03;8415265;28;20234;-80
2022/07/10 14:33:14;;;;;;;3.60;0.90;;;;;;;23.22;31.74;98573.06;8414909;28;20227;-80
2022/07/10 14:37:18;;;;;;;6.10;1.17;;;;;;;23.42;32.92;98568.69;8415027;28;20234;-80
2022/07/10 14:41:23;;;;;;;4.43;1.00;;;;;;;23.39;31.76;98571.59;8414945;28;20252;-80
2022/07/10 14:45:25;;;;;;;6.53;1.10;;;;;;;23.38;33.20;98569.09;8414290;28;20227;-79
2022/07/10 14:49:48;;;;;;;4.67;1.00;;;;;;;23.38;32.63;98574.38;8414065;28;20234;-80
2022/07/10 14:53:51;;;;;;;4.40;0.97;;;;;;;23.22;32.51;98566.97;8414679;28;20235;-79
2022/07/10 14:57:55;;;;;;;4.50;0.77;;;;;;;23.07;33.13;98568.28;8414568;28;20415;-80
2022/07/10 15:01:58;;;;;;;2.90;0.93;;;;;;;22.96;32.80;98574.47;8414215;28;20230;-80
2022/07/10 15:06:01;;;;;;;3.70;0.83;;;;;;;22.87;32.90;98562.06;8414072;28;20339;-80
2022/07/10 15:10:04;;;;;;;2.97;0.93;;;;;;;22.63;33.45;98560.53;8405217;28;20241;-79
2022/07/10 15:14:08;;;;;;;2.50;0.83;;;;;;;23.71;32.17;98557.34;8414108;28;20234;-80
2022/07/10 15:18:11;;;;;;;2.97;0.90;;;;;;;23.50;31.68;98538.13;8414029;28;20230;-79
2022/07/10 15:22:14;;;;;;;2.43;1.00;;;;;;;23.50;31.66;98546.88;8414017;28;20231;-80
2022/07/10 15:26:17;;;;;;;3.20;0.87;;;;;;;23.60;30.55;98545.09;8413847;28;20240;-79
2022/07/10 15:30:23;;;;;;;1.63;0.80;;;;;;;23.71;31.07;98524.78;8413889;28;20230;-78
2022/07/10 15:34:26;;;;;;;2.87;0.80;;;;;;;23.34;30.44;98535.97;8413318;28;20254;-79
2022/07/10 15:38:30;;;;;;;2.47;1.00;;;;;;;23.58;30.47;98530.34;8413658;28;20231;-80
2022/07/10 15:42:33;;;;;;;3.87;0.90;;;;;;;23.71;30.84;98532.72;8413682;28;20233;-80
2022/07/10 15:46:38;;;;;;;4.17;0.80;;;;;;;23.65;30.97;98514.78;8413517;28;20237;-79
2022/07/10 15:50:41;;;;;;;3.80;0.80;;;;;;;23.61;31.16;98527.44;8400487;28;20231;-80
2022/07/10 15:54:44;;;;;;;1.93;0.80;;;;;;;23.39;31.42;98528.50;8380191;28;20235;-80
2022/07/10 15:58:47;;;;;;;3.43;1.50;;;;;;;23.07;32.34;98518.94;8379992;28;20561;-80
2022/07/10 16:02:51;;;;;;;23.20;5.13;;;;;;;22.86;32.36;98528.69;8399457;28;20275;-79
2022/07/10 16:06:59;;;;;;;14.50;4.23;;;;;;;23.16;32.35;98527.88;8407952;28;20436;-79
2022/07/10 16:11:02;;;;;;;26.90;6.73;;;;;;;22.65;33.37;98526.91;8412146;28;20260;-80
2022/07/10 16:15:06;;;;;;;6.40;2.13;;;;;;;22.80;33.01;98517.69;8392052;28;20238;-79
2022/07/10 16:19:15;;;;;;;3.57;1.50;;;;;;;22.79;32.77;98526.59;8417570;28;20222;-79
2022/07/10 16:23:18;;;;;;;2.80;1.00;;;;;;;23.29;33.32;98506.50;8419178;28;20544;-81
2022/07/10 16:27:21;;;;;;;3.60;1.37;;;;;;;22.93;32.78;98516.66;8419143;28;20230;-80
2022/07/10 16:31:24;;;;;;;2.17;0.80;;;;;;;22.55;32.72;98507.56;8418645;28;20514;-79
2022/07/10 16:35:29;;;;;;;3.55;1.08;;;;;;;22.84;32.02;98513.81;8400321;28;20680;-83
2022/07/10 16:39:31;;;;;;;2.00;0.70;;;;;;;22.35;32.33;98506.59;8385748;28;20416;-80
2022/07/10 16:43:35;;;;;;;3.37;0.80;;;;;;;22.23;32.69;98513.72;8385324;28;20235;-79
2022/07/10 16:47:38;;;;;;;3.33;1.00;;;;;;;22.15;32.86;98509.09;8416600;28;20233;-79
2022/07/10 16:51:43;;;;;;;4.27;1.27;;;;;;;22.03;32.75;98516.22;8418178;28;20237;-80
2022/07/10 16:55:46;;;;;;;3.47;0.77;;;;;;;22.19;33.17;98504.41;8418020;28;20557;-79
2022/07/10 16:59:49;;;;;;;4.10;0.80;;;;;;;22.08;33.11;98499.19;8418132;28;20226;-79
2022/07/10 17:03:52;;;;;;;2.87;0.90;;;;;;;22.00;33.73;98513.84;8418699;28;20227;-79
2022/07/10 17:07:56;;;;;;;3.80;0.90;;;;;;;21.84;32.91;98510.81;8417989;28;20234;-81
2022/07/10 17:11:59;;;;;;;4.73;0.87;;;;;;;21.88;33.90;98512.22;8417863;28;20237;-79
2022/07/10 17:16:02;;;;;;;2.53;1.00;;;;;;;21.77;33.40;98502.56;8417653;28;20233;-80
2022/07/10 17:20:06;;;;;;;2.57;1.00;;;;;;;21.83;33.48;98512.59;8417546;28;20548;-78
2022/07/10 17:24:10;;;;;;;4.23;1.00;;;;;;;21.47;33.61;98509.34;8417321;28;20427;-79
2022/07/10 17:28:13;;;;;;;4.17;0.83;;;;;;;21.16;33.30;98505.66;8415529;28;20419;-79
2022/07/10 17:32:16;;;;;;;3.00;1.03;;;;;;;21.41;33.52;98507.19;8417205;28;20399;-78
2022/07/10 17:36:19;;;;;;;5.27;1.00;;;;;;;21.31;33.44;98502.78;8417008;28;20228;-78
2022/07/10 17:40:23;;;;;;;3.03;1.20;;;;;;;21.46;33.67;98494.50;8416509;28;20528;-77
2022/07/10 17:44:26;;;;;;;4.47;1.10;;;;;;;21.40;33.89;98508.16;8416480;28;20276;-79
2022/07/10 17:48:29;;;;;;;2.53;1.03;;;;;;;21.31;34.15;98505.44;8416068;28;20536;-79
2022/07/10 17:52:32;;;;;;;2.93;1.20;;;;;;;20.98;34.28;98500.06;8416570;28;20239;-78
2022/07/10 17:56:36;;;;;;;4.97;1.67;;;;;;;21.43;33.64;98507.06;8415770;28;20427;-79
2022/07/10 18:00:39;;;;;;;4.10;1.17;;;;;;;21.18;34.42;98506.38;8415955;28;20235;-78
2022/07/10 18:04:42;;;;;;;2.83;0.80;;;;;;;21.24;34.38;98513.78;8415681;28;20246;-79
2022/07/10 18:08:47;;;;;;;3.53;1.03;;;;;;;21.24;34.58;98512.97;8415342;28;20240;-79
2022/07/10 18:12:52;;;;;;;3.37;1.47;;;;;;;21.24;34.77;98507.69;8415601;28;20230;-79
2022/07/10 18:16:54;;;;;;;5.57;1.20;;;;;;;21.16;34.82;98510.09;8415576;28;20304;-79
2022/07/10 18:20:57;;;;;;;8.97;1.40;;;;;;;21.25;36.62;98504.94;8414507;28;20302;-79
2022/07/10 18:25:00;;;;;;;12.83;1.73;;;;;;;21.31;37.40;98508.06;8415268;28;20234;-79
2022/07/10 18:29:04;;;;;;;12.53;1.73;;;;;;;21.44;39.28;98504.34;8414958;28;20526;-79
2022/07/10 18:37:45;;;;;;;3.70;1.27;;;;;;;21.39;35.44;98511.72;8412747;28;20408;-79
2022/07/10 18:41:48;;;;;;;3.83;1.23;;;;;;;21.14;36.83;98515.50;8414508;28;20435;-79
2022/07/10 18:45:52;;;;;;;14.48;1.75;;;;;;;21.85;37.76;98521.19;8412779;28;20408;-78
2022/07/10 18:49:55;;;;;;;9.67;1.20;;;;;;;21.20;37.88;98515.00;8414616;28;20222;-79
2022/07/10 18:53:58;;;;;;;10.80;1.63;;;;;;;21.59;39.03;98522.50;8414300;28;20431;-79
2022/07/10 18:58:01;;;;;;;10.80;1.60;;;;;;;22.01;37.72;98527.88;8413085;28;20432;-79
2022/07/10 19:02:05;;;;;;;7.93;1.55;;;;;;;22.07;37.85;98535.28;8413233;28;20403;-79
2022/07/10 19:06:08;;;;;;;15.93;1.80;;;;;;;21.75;38.27;98522.09;8414278;28;20234;-78
2022/07/10 19:10:11;;;;;;;13.83;2.00;;;;;;;21.66;37.56;98527.13;8413818;28;20533;-80
2022/07/10 19:14:14;;;;;;;16.17;1.90;;;;;;;21.63;38.59;98532.69;8385987;28;20701;-78